sensor_id;sensor_type;location;lat;lon;timestamp;pressure;altitude;pressure_sealevel;temperature;humidity
53262;BME280;39658;51.090;-1.786;2022-12-04T00:01:58;100900.63;;;20.90;55.15
53262;BME280;39658;51.090;-1.786;2022-12-04T00:04:25;100892.25;;;20.99;54.96
53262;BME280;39658;51.090;-1.786;2022-12-04T00:06:53;100891.16;;;21.06;54.79
53262;BME280;39658;51.090;-1.786;2022-12-04T00:09:20;100899.81;;;21.15;54.66
53262;BME280;39658;51.090;-1.786;2022-12-04T00:11:49;100896.06;;;21.22;54.44
53262;BME280;39658;51.090;-1.786;2022-12-04T00:14:16;100892.28;;;21.30;54.30
53262;BME280;39658;51.090;-1.786;2022-12-04T00:16:43;100892.22;;;21.37;54.22
53262;BME280;39658;51.090;-1.786;2022-12-04T00:19:10;100894.63;;;21.45;53.99
53262;BME280;39658;51.090;-1.786;2022-12-04T00:21:37;100895.41;;;21.52;53.84
53262;BME280;39658;51.090;-1.786;2022-12-04T00:24:04;100897.22;;;21.58;53.94
53262;BME280;39658;51.090;-1.786;2022-12-04T00:26:31;100890.09;;;21.64;53.89
53262;BME280;39658;51.090;-1.786;2022-12-04T00:29:00;100889.44;;;21.68;53.56
53262;BME280;39658;51.090;-1.786;2022-12-04T00:31:28;100888.75;;;21.73;53.34
53262;BME280;39658;51.090;-1.786;2022-12-04T00:33:56;100886.66;;;21.75;53.56
53262;BME280;39658;51.090;-1.786;2022-12-04T00:36:25;100883.72;;;21.76;53.32
53262;BME280;39658;51.090;-1.786;2022-12-04T00:38:52;100877.25;;;21.77;53.35
53262;BME280;39658;51.090;-1.786;2022-12-04T00:41:21;100870.19;;;21.76;53.31
53262;BME280;39658;51.090;-1.786;2022-12-04T00:43:48;100866.63;;;21.76;53.30
53262;BME280;39658;51.090;-1.786;2022-12-04T00:46:16;100870.41;;;21.75;53.26
53262;BME280;39658;51.090;-1.786;2022-12-04T00:48:43;100868.75;;;21.74;53.21
53262;BME280;39658;51.090;-1.786;2022-12-04T00:51:12;100860.84;;;21.72;53.24
53262;BME280;39658;51.090;-1.786;2022-12-04T00:53:39;100866.25;;;21.72;53.14
53262;BME280;39658;51.090;-1.786;2022-12-04T00:56:12;100862.72;;;21.72;53.06
53262;BME280;39658;51.090;-1.786;2022-12-04T00:58:40;100857.91;;;21.74;53.28
53262;BME280;39658;51.090;-1.786;2022-12-04T01:01:09;100861.22;;;21.76;53.24
53262;BME280;39658;51.090;-1.786;2022-12-04T01:03:38;100859.72;;;21.80;53.02
53262;BME280;39658;51.090;-1.786;2022-12-04T01:06:06;100865.28;;;21.85;53.17
53262;BME280;39658;51.090;-1.786;2022-12-04T01:08:33;100860.00;;;21.90;52.89
53262;BME280;39658;51.090;-1.786;2022-12-04T01:11:04;100863.69;;;21.96;52.99
53262;BME280;39658;51.090;-1.786;2022-12-04T01:13:32;100859.25;;;22.01;52.90
53262;BME280;39658;51.090;-1.786;2022-12-04T01:15:58;100855.69;;;22.07;52.96
53262;BME280;39658;51.090;-1.786;2022-12-04T01:18:25;100859.16;;;22.14;52.68
53262;BME280;39658;51.090;-1.786;2022-12-04T01:20:54;100849.50;;;22.18;52.69
53262;BME280;39658;51.090;-1.786;2022-12-04T01:23:21;100850.47;;;22.24;52.57
53262;BME280;39658;51.090;-1.786;2022-12-04T01:25:51;100848.34;;;22.26;52.34
53262;BME280;39658;51.090;-1.786;2022-12-04T01:28:19;100854.16;;;22.30;52.31
53262;BME280;39658;51.090;-1.786;2022-12-04T01:30:58;100853.09;;;22.31;52.23
53262;BME280;39658;51.090;-1.786;2022-12-04T01:33:26;100843.91;;;22.32;52.41
53262;BME280;39658;51.090;-1.786;2022-12-04T01:35:55;100846.16;;;22.35;52.21
53262;BME280;39658;51.090;-1.786;2022-12-04T01:38:23;100831.31;;;22.37;52.16
53262;BME280;39658;51.090;-1.786;2022-12-04T01:40:51;100833.56;;;22.40;52.24
53262;BME280;39658;51.090;-1.786;2022-12-04T01:43:19;100828.75;;;22.42;52.31
53262;BME280;39658;51.090;-1.786;2022-12-04T01:45:46;100834.78;;;22.44;51.95
53262;BME280;39658;51.090;-1.786;2022-12-04T01:48:20;100833.72;;;22.45;51.89
53262;BME280;39658;51.090;-1.786;2022-12-04T01:50:52;100833.72;;;22.45;51.87
53262;BME280;39658;51.090;-1.786;2022-12-04T01:53:21;100825.81;;;22.44;51.90
53262;BME280;39658;51.090;-1.786;2022-12-04T01:55:48;100825.22;;;22.42;52.04
53262;BME280;39658;51.090;-1.786;2022-12-04T01:58:20;100825.44;;;22.40;52.09
53262;BME280;39658;51.090;-1.786;2022-12-04T02:00:51;100832.97;;;22.38;51.90
53262;BME280;39658;51.090;-1.786;2022-12-04T02:03:20;100821.53;;;22.36;51.96
53262;BME280;39658;51.090;-1.786;2022-12-04T02:05:47;100822.22;;;22.32;52.11
53262;BME280;39658;51.090;-1.786;2022-12-04T02:08:14;100823.50;;;22.29;52.22
53262;BME280;39658;51.090;-1.786;2022-12-04T02:10:50;100814.19;;;22.25;52.14
53262;BME280;39658;51.090;-1.786;2022-12-04T02:13:23;100805.91;;;22.20;52.15
53262;BME280;39658;51.090;-1.786;2022-12-04T02:15:56;100808.25;;;22.16;52.34
53262;BME280;39658;51.090;-1.786;2022-12-04T02:18:31;100812.47;;;22.12;52.37
53262;BME280;39658;51.090;-1.786;2022-12-04T02:21:04;100804.19;;;22.07;52.48
53262;BME280;39658;51.090;-1.786;2022-12-04T02:24:02;100805.91;;;22.02;52.61
53262;BME280;39658;51.090;-1.786;2022-12-04T02:26:43;100816.34;;;21.98;52.74
53262;BME280;39658;51.090;-1.786;2022-12-04T02:29:22;100804.75;;;21.91;52.71
53262;BME280;39658;51.090;-1.786;2022-12-04T02:31:57;100809.00;;;21.87;52.89
53262;BME280;39658;51.090;-1.786;2022-12-04T02:34:27;100806.13;;;21.82;52.78
53262;BME280;39658;51.090;-1.786;2022-12-04T02:36:58;100809.53;;;21.77;52.91
53262;BME280;39658;51.090;-1.786;2022-12-04T02:39:31;100800.41;;;21.72;52.80
53262;BME280;39658;51.090;-1.786;2022-12-04T02:42:05;100813.00;;;21.66;53.04
53262;BME280;39658;51.090;-1.786;2022-12-04T02:44:37;100809.28;;;21.61;53.15
53262;BME280;39658;51.090;-1.786;2022-12-04T02:47:10;100817.03;;;21.57;53.20
53262;BME280;39658;51.090;-1.786;2022-12-04T02:49:42;100817.09;;;21.50;53.28
53262;BME280;39658;51.090;-1.786;2022-12-04T02:52:12;100822.13;;;21.47;53.34
53262;BME280;39658;51.090;-1.786;2022-12-04T02:54:44;100821.97;;;21.42;53.42
53262;BME280;39658;51.090;-1.786;2022-12-04T02:57:17;100816.19;;;21.38;53.58
53262;BME280;39658;51.090;-1.786;2022-12-04T02:59:47;100815.19;;;21.33;53.69
53262;BME280;39658;51.090;-1.786;2022-12-04T03:02:18;100817.53;;;21.29;53.74
53262;BME280;39658;51.090;-1.786;2022-12-04T03:04:48;100815.50;;;21.24;53.75
53262;BME280;39658;51.090;-1.786;2022-12-04T03:07:19;100808.81;;;21.20;53.82
53262;BME280;39658;51.090;-1.786;2022-12-04T03:09:51;100802.19;;;21.16;53.99
53262;BME280;39658;51.090;-1.786;2022-12-04T03:12:25;100809.09;;;21.12;54.01
53262;BME280;39658;51.090;-1.786;2022-12-04T03:14:57;100805.38;;;21.07;54.10
53262;BME280;39658;51.090;-1.786;2022-12-04T03:17:30;100801.47;;;21.03;54.13
53262;BME280;39658;51.090;-1.786;2022-12-04T03:20:00;100795.06;;;20.97;54.27
53262;BME280;39658;51.090;-1.786;2022-12-04T03:22:30;100799.28;;;20.93;54.39
53262;BME280;39658;51.090;-1.786;2022-12-04T03:24:57;100799.94;;;20.88;54.32
53262;BME280;39658;51.090;-1.786;2022-12-04T03:27:29;100801.44;;;20.84;54.35
53262;BME280;39658;51.090;-1.786;2022-12-04T03:30:04;100803.94;;;20.79;54.53
53262;BME280;39658;51.090;-1.786;2022-12-04T03:32:34;100789.19;;;20.75;54.55
53262;BME280;39658;51.090;-1.786;2022-12-04T03:35:06;100789.84;;;20.71;54.63
53262;BME280;39658;51.090;-1.786;2022-12-04T03:37:37;100785.09;;;20.66;54.79
53262;BME280;39658;51.090;-1.786;2022-12-04T03:40:12;100782.00;;;20.62;54.92
53262;BME280;39658;51.090;-1.786;2022-12-04T03:42:44;100776.22;;;20.59;54.91
53262;BME280;39658;51.090;-1.786;2022-12-04T03:45:19;100783.13;;;20.55;55.08
53262;BME280;39658;51.090;-1.786;2022-12-04T03:47:53;100781.91;;;20.51;55.20
53262;BME280;39658;51.090;-1.786;2022-12-04T03:50:27;100781.72;;;20.46;55.15
53262;BME280;39658;51.090;-1.786;2022-12-04T03:53:00;100778.63;;;20.42;55.11
53262;BME280;39658;51.090;-1.786;2022-12-04T03:55:34;100786.28;;;20.39;55.32
53262;BME280;39658;51.090;-1.786;2022-12-04T03:58:05;100784.84;;;20.36;55.40
53262;BME280;39658;51.090;-1.786;2022-12-04T04:00:38;100778.22;;;20.32;55.44
53262;BME280;39658;51.090;-1.786;2022-12-04T04:03:09;100780.53;;;20.28;55.43
53262;BME280;39658;51.090;-1.786;2022-12-04T04:05:41;100774.72;;;20.25;55.62
53262;BME280;39658;51.090;-1.786;2022-12-04T04:08:13;100785.16;;;20.21;55.54
53262;BME280;39658;51.090;-1.786;2022-12-04T04:10:58;100782.06;;;20.18;55.66
53262;BME280;39658;51.090;-1.786;2022-12-04T04:13:31;100782.69;;;20.13;55.69
53262;BME280;39658;51.090;-1.786;2022-12-04T04:16:20;100781.47;;;20.09;55.87
53262;BME280;39658;51.090;-1.786;2022-12-04T04:19:06;100782.75;;;20.07;55.91
53262;BME280;39658;51.090;-1.786;2022-12-04T04:21:52;100782.34;;;20.03;55.91
53262;BME280;39658;51.090;-1.786;2022-12-04T04:24:41;100780.25;;;19.98;55.84
53262;BME280;39658;51.090;-1.786;2022-12-04T04:27:09;100779.66;;;19.96;56.00
53262;BME280;39658;51.090;-1.786;2022-12-04T04:29:36;100774.66;;;19.93;55.94
53262;BME280;39658;51.090;-1.786;2022-12-04T04:32:10;100772.19;;;19.92;56.00
53262;BME280;39658;51.090;-1.786;2022-12-04T04:34:46;100776.97;;;19.90;56.04
53262;BME280;39658;51.090;-1.786;2022-12-04T04:37:22;100776.56;;;19.86;56.11
53262;BME280;39658;51.090;-1.786;2022-12-04T04:39:56;100777.84;;;19.84;56.14
53262;BME280;39658;51.090;-1.786;2022-12-04T04:42:27;100775.56;;;19.81;56.06
53262;BME280;39658;51.090;-1.786;2022-12-04T04:45:00;100774.13;;;19.78;56.34
53262;BME280;39658;51.090;-1.786;2022-12-04T04:47:31;100772.88;;;19.74;56.29
53262;BME280;39658;51.090;-1.786;2022-12-04T04:50:00;100778.50;;;19.73;56.49
53262;BME280;39658;51.090;-1.786;2022-12-04T04:52:29;100774.38;;;19.70;56.46
53262;BME280;39658;51.090;-1.786;2022-12-04T04:54:58;100780.19;;;19.67;56.36
53262;BME280;39658;51.090;-1.786;2022-12-04T04:57:27;100777.69;;;19.65;56.31
53262;BME280;39658;51.090;-1.786;2022-12-04T04:59:54;100779.78;;;19.63;56.46
53262;BME280;39658;51.090;-1.786;2022-12-04T05:02:23;100779.16;;;19.61;56.72
53262;BME280;39658;51.090;-1.786;2022-12-04T05:04:51;100771.47;;;19.58;56.44
53262;BME280;39658;51.090;-1.786;2022-12-04T05:07:18;100767.31;;;19.56;56.48
53262;BME280;39658;51.090;-1.786;2022-12-04T05:09:45;100763.19;;;19.53;56.75
53262;BME280;39658;51.090;-1.786;2022-12-04T05:12:12;100773.31;;;19.51;56.57
53262;BME280;39658;51.090;-1.786;2022-12-04T05:14:39;100762.97;;;19.48;56.83
53262;BME280;39658;51.090;-1.786;2022-12-04T05:17:05;100764.22;;;19.46;56.63
53262;BME280;39658;51.090;-1.786;2022-12-04T05:19:33;100769.81;;;19.44;56.58
53262;BME280;39658;51.090;-1.786;2022-12-04T05:22:19;100772.94;;;19.41;56.75
53262;BME280;39658;51.090;-1.786;2022-12-04T05:24:46;100770.66;;;19.38;56.76
53262;BME280;39658;51.090;-1.786;2022-12-04T05:27:13;100774.63;;;19.35;56.84
53262;BME280;39658;51.090;-1.786;2022-12-04T05:29:40;100786.47;;;19.34;56.79
53262;BME280;39658;51.090;-1.786;2022-12-04T05:32:07;100781.47;;;19.31;56.66
53262;BME280;39658;51.090;-1.786;2022-12-04T05:34:33;100776.28;;;19.30;56.66
53262;BME280;39658;51.090;-1.786;2022-12-04T05:37:00;100771.31;;;19.27;56.73
53262;BME280;39658;51.090;-1.786;2022-12-04T05:39:28;100788.56;;;19.26;56.94
53262;BME280;39658;51.090;-1.786;2022-12-04T05:41:55;100788.97;;;19.23;57.04
53262;BME280;39658;51.090;-1.786;2022-12-04T05:44:22;100786.66;;;19.20;56.78
53262;BME280;39658;51.090;-1.786;2022-12-04T05:46:49;100785.84;;;19.19;56.90
53262;BME280;39658;51.090;-1.786;2022-12-04T05:49:16;100784.59;;;19.15;57.01
53262;BME280;39658;51.090;-1.786;2022-12-04T05:51:43;100787.50;;;19.14;56.67
53262;BME280;39658;51.090;-1.786;2022-12-04T05:54:10;100791.44;;;19.11;57.20
53262;BME280;39658;51.090;-1.786;2022-12-04T05:56:38;100786.47;;;19.08;56.64
53262;BME280;39658;51.090;-1.786;2022-12-04T05:59:05;100791.25;;;19.06;57.13
53262;BME280;39658;51.090;-1.786;2022-12-04T06:01:32;100790.41;;;19.05;56.92
53262;BME280;39658;51.090;-1.786;2022-12-04T06:03:58;100784.63;;;19.02;57.13
53262;BME280;39658;51.090;-1.786;2022-12-04T06:06:25;100781.09;;;19.01;56.92
53262;BME280;39658;51.090;-1.786;2022-12-04T06:08:54;100782.75;;;19.02;56.90
53262;BME280;39658;51.090;-1.786;2022-12-04T06:11:23;100776.09;;;19.05;56.90
53262;BME280;39658;51.090;-1.786;2022-12-04T06:13:53;100773.81;;;19.08;56.56
53262;BME280;39658;51.090;-1.786;2022-12-04T06:16:23;100777.53;;;19.14;56.60
53262;BME280;39658;51.090;-1.786;2022-12-04T06:18:51;100779.22;;;19.22;56.36
53262;BME280;39658;51.090;-1.786;2022-12-04T06:21:19;100784.38;;;19.30;56.19
53262;BME280;39658;51.090;-1.786;2022-12-04T06:23:46;100785.59;;;19.40;56.25
53262;BME280;39658;51.090;-1.786;2022-12-04T06:26:14;100778.94;;;19.50;55.89
53262;BME280;39658;51.090;-1.786;2022-12-04T06:28:41;100773.94;;;19.60;55.88
53262;BME280;39658;51.090;-1.786;2022-12-04T06:31:12;100779.75;;;19.70;55.74
53262;BME280;39658;51.090;-1.786;2022-12-04T06:33:39;100769.34;;;19.80;55.43
53262;BME280;39658;51.090;-1.786;2022-12-04T06:36:08;100769.69;;;19.90;55.30
53262;BME280;39658;51.090;-1.786;2022-12-04T06:38:36;100779.22;;;19.99;55.17
53262;BME280;39658;51.090;-1.786;2022-12-04T06:41:03;100774.41;;;20.08;54.90
53262;BME280;39658;51.090;-1.786;2022-12-04T06:43:30;100780.19;;;20.18;54.81
53262;BME280;39658;51.090;-1.786;2022-12-04T06:46:00;100788.63;;;20.28;54.66
53262;BME280;39658;51.090;-1.786;2022-12-04T06:48:29;100781.31;;;20.35;54.45
53262;BME280;39658;51.090;-1.786;2022-12-04T06:51:00;100786.31;;;20.45;54.25
53262;BME280;39658;51.090;-1.786;2022-12-04T06:53:27;100786.88;;;20.54;53.98
53262;BME280;39658;51.090;-1.786;2022-12-04T06:55:56;100790.34;;;20.61;53.91
53262;BME280;39658;51.090;-1.786;2022-12-04T06:58:23;100784.88;;;20.68;53.73
53262;BME280;39658;51.090;-1.786;2022-12-04T07:00:51;100780.25;;;20.75;53.49
53262;BME280;39658;51.090;-1.786;2022-12-04T07:03:18;100780.00;;;20.83;53.40
53262;BME280;39658;51.090;-1.786;2022-12-04T07:05:46;100784.31;;;20.90;53.34
53262;BME280;39658;51.090;-1.786;2022-12-04T07:08:13;100778.00;;;20.96;53.19
53262;BME280;39658;51.090;-1.786;2022-12-04T07:10:41;100776.06;;;21.04;53.06
53262;BME280;39658;51.090;-1.786;2022-12-04T07:13:08;100786.00;;;21.10;53.05
53262;BME280;39658;51.090;-1.786;2022-12-04T07:15:36;100782.41;;;21.16;52.97
53262;BME280;39658;51.090;-1.786;2022-12-04T07:18:03;100787.16;;;21.20;52.75
53262;BME280;39658;51.090;-1.786;2022-12-04T07:20:30;100787.59;;;21.24;52.74
53262;BME280;39658;51.090;-1.786;2022-12-04T07:22:59;100791.50;;;21.28;52.71
53262;BME280;39658;51.090;-1.786;2022-12-04T07:25:25;100792.34;;;21.29;52.77
53262;BME280;39658;51.090;-1.786;2022-12-04T07:27:54;100792.34;;;21.29;52.68
53262;BME280;39658;51.090;-1.786;2022-12-04T07:30:21;100793.16;;;21.29;52.61
53262;BME280;39658;51.090;-1.786;2022-12-04T07:32:48;100783.38;;;21.28;52.56
53262;BME280;39658;51.090;-1.786;2022-12-04T07:35:15;100794.22;;;21.28;52.77
53262;BME280;39658;51.090;-1.786;2022-12-04T07:37:42;100795.50;;;21.25;52.59
53262;BME280;39658;51.090;-1.786;2022-12-04T07:40:11;100798.41;;;21.24;52.65
53262;BME280;39658;51.090;-1.786;2022-12-04T07:42:38;100805.06;;;21.21;52.67
53262;BME280;39658;51.090;-1.786;2022-12-04T07:45:06;100799.66;;;21.21;52.69
53262;BME280;39658;51.090;-1.786;2022-12-04T07:47:34;100806.94;;;21.21;52.65
53262;BME280;39658;51.090;-1.786;2022-12-04T07:50:02;100808.81;;;21.20;52.63
53262;BME280;39658;51.090;-1.786;2022-12-04T07:52:29;100814.22;;;21.20;52.74
53262;BME280;39658;51.090;-1.786;2022-12-04T07:54:56;100806.09;;;21.20;52.62
53262;BME280;39658;51.090;-1.786;2022-12-04T07:57:26;100807.97;;;21.20;52.66
53262;BME280;39658;51.090;-1.786;2022-12-04T07:59:53;100807.16;;;21.19;52.72
53262;BME280;39658;51.090;-1.786;2022-12-04T08:02:20;100811.72;;;21.19;52.74
53262;BME280;39658;51.090;-1.786;2022-12-04T08:04:46;100806.31;;;21.19;52.74
53262;BME280;39658;51.090;-1.786;2022-12-04T08:07:14;100809.84;;;21.19;52.68
53262;BME280;39658;51.090;-1.786;2022-12-04T08:09:41;100812.34;;;21.21;52.66
53262;BME280;39658;51.090;-1.786;2022-12-04T08:12:08;100813.19;;;21.21;52.76
53262;BME280;39658;51.090;-1.786;2022-12-04T08:14:36;100817.75;;;21.21;52.61
53262;BME280;39658;51.090;-1.786;2022-12-04T08:17:03;100819.44;;;21.22;52.67
53262;BME280;39658;51.090;-1.786;2022-12-04T08:19:30;100817.56;;;21.22;52.56
53262;BME280;39658;51.090;-1.786;2022-12-04T08:21:57;100816.53;;;21.23;52.62
53262;BME280;39658;51.090;-1.786;2022-12-04T08:24:24;100815.50;;;21.24;52.54
53262;BME280;39658;51.090;-1.786;2022-12-04T08:26:50;100814.66;;;21.24;52.60
53262;BME280;39658;51.090;-1.786;2022-12-04T08:29:17;100816.53;;;21.23;52.58
53262;BME280;39658;51.090;-1.786;2022-12-04T08:31:45;100821.13;;;21.23;52.54
53262;BME280;39658;51.090;-1.786;2022-12-04T08:34:12;100820.44;;;21.21;52.63
53262;BME280;39658;51.090;-1.786;2022-12-04T08:36:39;100823.59;;;21.18;52.69
53262;BME280;39658;51.090;-1.786;2022-12-04T08:39:07;100824.88;;;21.15;52.66
53262;BME280;39658;51.090;-1.786;2022-12-04T08:41:33;100825.31;;;21.12;52.71
53262;BME280;39658;51.090;-1.786;2022-12-04T08:44:00;100831.19;;;21.09;52.73
53262;BME280;39658;51.090;-1.786;2022-12-04T08:46:28;100830.78;;;21.06;52.78
53262;BME280;39658;51.090;-1.786;2022-12-04T08:48:56;100834.16;;;21.01;52.95
53262;BME280;39658;51.090;-1.786;2022-12-04T08:51:24;100829.19;;;20.98;52.67
53262;BME280;39658;51.090;-1.786;2022-12-04T08:53:53;100828.81;;;20.94;53.02
53262;BME280;39658;51.090;-1.786;2022-12-04T08:56:21;100828.44;;;20.91;52.85
53262;BME280;39658;51.090;-1.786;2022-12-04T08:58:48;100826.38;;;20.86;53.12
53262;BME280;39658;51.090;-1.786;2022-12-04T09:01:15;100840.34;;;20.83;53.10
53262;BME280;39658;51.090;-1.786;2022-12-04T09:03:42;100835.56;;;20.79;53.26
53262;BME280;39658;51.090;-1.786;2022-12-04T09:06:12;100840.59;;;20.75;53.25
53262;BME280;39658;51.090;-1.786;2022-12-04T09:08:39;100837.72;;;20.70;53.22
53262;BME280;39658;51.090;-1.786;2022-12-04T09:11:09;100837.31;;;20.67;53.47
53262;BME280;39658;51.090;-1.786;2022-12-04T09:13:37;100837.97;;;20.62;53.24
53262;BME280;39658;51.090;-1.786;2022-12-04T09:16:06;100839.44;;;20.58;53.54
53262;BME280;39658;51.090;-1.786;2022-12-04T09:18:34;100845.31;;;20.55;53.48
53262;BME280;39658;51.090;-1.786;2022-12-04T09:21:04;100839.94;;;20.48;53.67
53262;BME280;39658;51.090;-1.786;2022-12-04T09:23:32;100846.59;;;20.46;53.65
53262;BME280;39658;51.090;-1.786;2022-12-04T09:26:00;100841.00;;;20.41;53.78
53262;BME280;39658;51.090;-1.786;2022-12-04T09:28:27;100844.09;;;20.38;53.54
53262;BME280;39658;51.090;-1.786;2022-12-04T09:30:56;100849.94;;;20.34;53.89
53262;BME280;39658;51.090;-1.786;2022-12-04T09:33:23;100850.97;;;20.33;53.87
53262;BME280;39658;51.090;-1.786;2022-12-04T09:35:50;100857.22;;;20.34;54.00
53262;BME280;39658;51.090;-1.786;2022-12-04T09:38:17;100862.41;;;20.35;53.96
53262;BME280;39658;51.090;-1.786;2022-12-04T09:40:49;100862.63;;;20.41;53.89
53262;BME280;39658;51.090;-1.786;2022-12-04T09:43:25;100866.34;;;20.46;53.77
53262;BME280;39658;51.090;-1.786;2022-12-04T09:45:58;100869.84;;;20.53;53.66
53262;BME280;39658;51.090;-1.786;2022-12-04T09:48:31;100873.34;;;20.60;53.70
53262;BME280;39658;51.090;-1.786;2022-12-04T09:51:00;100870.38;;;20.69;53.64
53262;BME280;39658;51.090;-1.786;2022-12-04T09:53:33;100878.44;;;20.75;53.63
53262;BME280;39658;51.090;-1.786;2022-12-04T09:56:05;100882.56;;;20.84;53.34
53262;BME280;39658;51.090;-1.786;2022-12-04T09:58:40;100878.78;;;20.92;53.16
53262;BME280;39658;51.090;-1.786;2022-12-04T10:01:18;100876.63;;;21.01;53.22
53262;BME280;39658;51.090;-1.786;2022-12-04T10:03:47;100885.31;;;21.09;53.07
53262;BME280;39658;51.090;-1.786;2022-12-04T10:06:18;100888.78;;;21.16;52.92
53262;BME280;39658;51.090;-1.786;2022-12-04T10:08:52;100886.09;;;21.23;52.69
53262;BME280;39658;51.090;-1.786;2022-12-04T10:11:29;100887.69;;;21.31;52.72
53262;BME280;39658;51.090;-1.786;2022-12-04T10:14:22;100886.56;;;21.38;52.58
53262;BME280;39658;51.090;-1.786;2022-12-04T10:17:12;100891.69;;;21.46;52.47
53262;BME280;39658;51.090;-1.786;2022-12-04T10:19:46;100887.88;;;21.54;52.21
53262;BME280;39658;51.090;-1.786;2022-12-04T10:22:22;100887.81;;;21.61;52.15
53262;BME280;39658;51.090;-1.786;2022-12-04T10:24:53;100890.47;;;21.67;51.96
53262;BME280;39658;51.090;-1.786;2022-12-04T10:27:24;100896.06;;;21.72;52.02
53262;BME280;39658;51.090;-1.786;2022-12-04T10:29:55;100894.34;;;21.78;51.88
53262;BME280;39658;51.090;-1.786;2022-12-04T10:32:27;100892.59;;;21.83;51.73
53262;BME280;39658;51.090;-1.786;2022-12-04T10:34:58;100897.34;;;21.88;51.70
53262;BME280;39658;51.090;-1.786;2022-12-04T10:37:28;100898.78;;;21.90;51.79
53262;BME280;39658;51.090;-1.786;2022-12-04T10:40:02;100898.78;;;21.90;51.54
53262;BME280;39658;51.090;-1.786;2022-12-04T10:42:38;100900.44;;;21.92;51.55
53262;BME280;39658;51.090;-1.786;2022-12-04T10:45:09;100898.78;;;21.90;51.37
53262;BME280;39658;51.090;-1.786;2022-12-04T10:47:44;100897.72;;;21.92;51.57
53262;BME280;39658;51.090;-1.786;2022-12-04T10:50:16;100895.25;;;21.90;51.58
53262;BME280;39658;51.090;-1.786;2022-12-04T10:52:44;100883.78;;;21.88;51.49
53262;BME280;39658;51.090;-1.786;2022-12-04T10:55:11;100879.44;;;21.87;51.56
53262;BME280;39658;51.090;-1.786;2022-12-04T10:57:41;100890.50;;;21.85;51.42
53262;BME280;39658;51.090;-1.786;2022-12-04T11:00:26;100877.03;;;21.79;50.25
53262;BME280;39658;51.090;-1.786;2022-12-04T11:02:56;100878.31;;;21.76;50.26
53262;BME280;39658;51.090;-1.786;2022-12-04T11:05:27;100878.91;;;21.78;50.22
53262;BME280;39658;51.090;-1.786;2022-12-04T11:07:56;100876.56;;;21.82;50.39
53262;BME280;39658;51.090;-1.786;2022-12-04T11:10:30;100869.88;;;21.84;50.43
53262;BME280;39658;51.090;-1.786;2022-12-04T11:13:01;100875.06;;;21.86;50.32
53262;BME280;39658;51.090;-1.786;2022-12-04T11:15:29;100871.31;;;21.87;50.37
53262;BME280;39658;51.090;-1.786;2022-12-04T11:18:06;100872.13;;;21.87;50.50
53262;BME280;39658;51.090;-1.786;2022-12-04T11:20:34;100881.09;;;21.88;50.53
53262;BME280;39658;51.090;-1.786;2022-12-04T11:23:01;100874.00;;;21.87;50.55
53262;BME280;39658;51.090;-1.786;2022-12-04T11:25:34;100874.47;;;21.84;50.06
53262;BME280;39658;51.090;-1.786;2022-12-04T11:28:04;100879.50;;;21.80;50.00
53262;BME280;39658;51.090;-1.786;2022-12-04T11:30:33;100883.50;;;21.78;49.95
53262;BME280;39658;51.090;-1.786;2022-12-04T11:33:01;100880.19;;;21.76;49.78
53262;BME280;39658;51.090;-1.786;2022-12-04T11:35:30;100885.00;;;21.74;50.06
53262;BME280;39658;51.090;-1.786;2022-12-04T11:38:02;100878.16;;;21.71;50.18
53262;BME280;39658;51.090;-1.786;2022-12-04T11:40:31;100882.34;;;21.67;50.02
53262;BME280;39658;51.090;-1.786;2022-12-04T11:43:04;100872.81;;;21.65;50.16
53262;BME280;39658;51.090;-1.786;2022-12-04T11:45:32;100871.56;;;21.61;50.27
53262;BME280;39658;51.090;-1.786;2022-12-04T11:48:02;100870.34;;;21.56;50.51
53262;BME280;39658;51.090;-1.786;2022-12-04T11:50:36;100871.63;;;21.54;50.68
53262;BME280;39658;51.090;-1.786;2022-12-04T11:53:11;100873.97;;;21.50;50.75
53262;BME280;39658;51.090;-1.786;2022-12-04T11:55:49;100865.44;;;21.47;50.87
53262;BME280;39658;51.090;-1.786;2022-12-04T11:58:44;100871.53;;;21.42;51.07
53262;BME280;39658;51.090;-1.786;2022-12-04T12:01:19;100874.91;;;21.38;51.27
53262;BME280;39658;51.090;-1.786;2022-12-04T12:03:59;100874.75;;;21.33;51.49
53262;BME280;39658;51.090;-1.786;2022-12-04T12:06:35;100871.66;;;21.29;51.43
53262;BME280;39658;51.090;-1.786;2022-12-04T12:09:20;100870.66;;;21.23;51.62
53262;BME280;39658;51.090;-1.786;2022-12-04T12:11:53;100870.44;;;21.18;51.65
53262;BME280;39658;51.090;-1.786;2022-12-04T12:14:29;100879.22;;;21.14;51.83
53262;BME280;39658;51.090;-1.786;2022-12-04T12:17:07;100873.66;;;21.09;52.10
53262;BME280;39658;51.090;-1.786;2022-12-04T12:19:56;100864.53;;;21.03;52.23
53262;BME280;39658;51.090;-1.786;2022-12-04T12:22:51;100858.13;;;20.98;52.29
53262;BME280;39658;51.090;-1.786;2022-12-04T12:25:27;100866.06;;;20.92;52.46
53262;BME280;39658;51.090;-1.786;2022-12-04T12:28:07;100861.31;;;20.88;52.57
53262;BME280;39658;51.090;-1.786;2022-12-04T12:30:51;100854.69;;;20.84;52.63
53262;BME280;39658;51.090;-1.786;2022-12-04T12:33:26;100856.38;;;20.78;52.31
53262;BME280;39658;51.090;-1.786;2022-12-04T12:35:59;100852.22;;;20.76;52.71
53262;BME280;39658;51.090;-1.786;2022-12-04T12:38:33;100843.50;;;20.74;52.86
53262;BME280;39658;51.090;-1.786;2022-12-04T12:41:03;100838.31;;;20.72;52.80
53262;BME280;39658;51.090;-1.786;2022-12-04T12:43:34;100833.28;;;20.76;53.46
53262;BME280;39658;51.090;-1.786;2022-12-04T12:46:08;100829.94;;;20.80;53.42
53262;BME280;39658;51.090;-1.786;2022-12-04T12:48:39;100842.81;;;20.85;53.18
53262;BME280;39658;51.090;-1.786;2022-12-04T12:51:23;100833.00;;;20.90;53.23
53262;BME280;39658;51.090;-1.786;2022-12-04T12:53:55;100840.84;;;20.99;53.14
53262;BME280;39658;51.090;-1.786;2022-12-04T12:56:30;100840.56;;;21.07;53.06
53262;BME280;39658;51.090;-1.786;2022-12-04T12:59:03;100846.53;;;21.15;52.98